createdAt,value
2022-11-14T00:03:07.270Z,2.00
2022-11-14T00:06:28.864Z,2.00
2022-11-14T00:09:50.458Z,2.00
2022-11-14T00:13:12.032Z,1.90
2022-11-14T00:16:34.951Z,1.80
2022-11-14T00:19:56.546Z,1.80
2022-11-14T00:23:18.145Z,1.80
2022-11-14T00:26:39.702Z,1.70
2022-11-14T00:30:01.398Z,1.70
2022-11-14T00:33:24.319Z,1.60
2022-11-14T00:36:45.890Z,1.60
2022-11-14T00:40:07.999Z,1.60
2022-11-14T00:43:29.587Z,1.50
2022-11-14T00:46:51.160Z,1.50
2022-11-14T00:50:14.152Z,1.50
2022-11-14T00:53:35.758Z,1.60
2022-11-14T00:56:57.375Z,1.60
2022-11-14T01:00:19.037Z,1.50
2022-11-14T01:03:40.609Z,1.50
2022-11-14T01:07:03.521Z,1.60
2022-11-14T01:10:25.225Z,1.80
2022-11-14T01:13:47.069Z,1.90
2022-11-14T01:17:08.659Z,2.10
2022-11-14T01:20:30.241Z,2.10
2022-11-14T01:23:53.143Z,2.10
2022-11-14T01:27:14.708Z,2.10
2022-11-14T01:30:36.316Z,1.90
2022-11-14T01:33:57.897Z,1.80
2022-11-14T01:37:19.493Z,1.80
2022-11-14T01:40:43.014Z,1.70
2022-11-14T01:44:11.454Z,1.60
2022-11-14T01:47:33.352Z,1.60
2022-11-14T01:50:56.832Z,1.60
2022-11-14T01:54:20.882Z,1.50
2022-11-14T01:57:46.013Z,1.50
2022-11-14T02:01:07.792Z,1.40
2022-11-14T02:04:32.711Z,1.30
2022-11-14T02:07:54.285Z,1.30
2022-11-14T02:11:15.850Z,1.20
2022-11-14T02:14:39.583Z,1.20
2022-11-14T02:18:01.601Z,1.20
2022-11-14T02:21:24.576Z,1.10
2022-11-14T02:24:46.357Z,1.10
2022-11-14T02:28:09.309Z,1.10
2022-11-14T02:31:30.884Z,1.10
2022-11-14T02:34:52.496Z,1.20
2022-11-14T02:38:15.403Z,1.10
2022-11-14T02:41:36.987Z,1.10
2022-11-14T02:44:58.580Z,1.00
2022-11-14T02:48:20.167Z,1.10
2022-11-14T02:51:41.770Z,1.20
2022-11-14T02:55:05.239Z,1.20
2022-11-14T02:58:26.916Z,1.20
2022-11-14T03:01:48.686Z,1.20
2022-11-14T03:05:10.459Z,1.10
2022-11-14T03:08:32.298Z,1.10
2022-11-14T03:11:55.353Z,1.10
2022-11-14T03:15:16.932Z,1.10
2022-11-14T03:18:38.637Z,1.00
2022-11-14T03:22:00.210Z,1.00
2022-11-14T03:25:21.789Z,0.90
2022-11-14T03:28:44.711Z,0.80
2022-11-14T03:32:06.284Z,0.80
2022-11-14T03:35:27.949Z,0.80
2022-11-14T03:38:49.537Z,0.80
2022-11-14T03:42:11.120Z,0.80
2022-11-14T03:45:34.061Z,0.80
2022-11-14T03:48:55.633Z,0.80
2022-11-14T03:52:17.292Z,0.80
2022-11-14T03:55:39.116Z,0.90
2022-11-14T03:59:00.755Z,0.90
2022-11-14T04:02:23.657Z,0.90
2022-11-14T04:05:45.574Z,0.90
2022-11-14T04:09:07.180Z,0.90
2022-11-14T04:12:28.758Z,0.90
2022-11-14T04:15:54.454Z,1.00
2022-11-14T04:19:17.430Z,0.90
2022-11-14T04:22:39.119Z,0.90
2022-11-14T04:26:00.815Z,0.80
2022-11-14T04:29:22.383Z,0.80
2022-11-14T04:32:44.722Z,0.70
2022-11-14T04:36:08.577Z,0.70
2022-11-14T04:39:30.672Z,0.70
2022-11-14T04:42:52.238Z,0.70
2022-11-14T04:46:13.804Z,0.70
2022-11-14T04:49:35.602Z,0.70
2022-11-14T04:52:58.510Z,0.70
2022-11-14T04:56:20.081Z,0.80
2022-11-14T04:59:41.793Z,0.80
2022-11-14T05:03:03.543Z,0.80
2022-11-14T05:06:25.139Z,0.90
2022-11-14T05:09:48.049Z,0.90
2022-11-14T05:13:09.637Z,0.90
2022-11-14T05:16:31.216Z,0.90
2022-11-14T05:19:52.828Z,0.90
2022-11-14T05:23:18.164Z,0.90
2022-11-14T05:26:41.318Z,0.90
2022-11-14T05:30:03.038Z,0.90
2022-11-14T05:33:24.610Z,0.90
2022-11-14T05:36:46.188Z,1.00
2022-11-14T05:40:08.221Z,1.00
2022-11-14T05:43:31.118Z,1.00
2022-11-14T05:46:52.717Z,1.00
2022-11-14T05:50:14.329Z,1.00
2022-11-14T05:53:35.982Z,1.00
2022-11-14T05:56:57.861Z,1.10
2022-11-14T06:00:21.034Z,1.20
2022-11-14T06:03:43.417Z,1.20
2022-11-14T06:07:05.068Z,1.30
2022-11-14T06:10:26.715Z,1.40
2022-11-14T06:13:48.442Z,1.50
2022-11-14T06:17:11.538Z,1.60
2022-11-14T06:20:33.101Z,1.70
2022-11-14T06:23:54.669Z,1.70
2022-11-14T06:27:16.270Z,1.80
2022-11-14T06:30:37.901Z,1.90
2022-11-14T06:34:00.985Z,1.90
2022-11-14T06:37:22.564Z,2.00
2022-11-14T06:40:44.147Z,2.20
2022-11-14T06:44:07.227Z,2.30
2022-11-14T06:47:28.792Z,2.30
2022-11-14T06:50:55.466Z,2.30
2022-11-14T06:54:17.173Z,2.20
2022-11-14T06:57:38.773Z,2.20
2022-11-14T07:01:03.314Z,2.20
2022-11-14T07:04:24.909Z,2.20
2022-11-14T07:07:47.862Z,2.30
2022-11-14T07:11:10.506Z,2.10
2022-11-14T07:14:32.087Z,2.20
2022-11-14T07:17:53.681Z,2.20
2022-11-14T07:21:15.327Z,2.30
2022-11-14T07:24:38.467Z,2.40
2022-11-14T07:28:00.105Z,2.50
2022-11-14T07:31:21.708Z,2.60
2022-11-14T07:34:43.256Z,2.70
2022-11-14T07:38:05.111Z,2.80
2022-11-14T07:41:28.059Z,2.90
2022-11-14T07:44:49.610Z,3.00
2022-11-14T07:48:11.204Z,3.10
2022-11-14T07:51:32.795Z,3.20
2022-11-14T07:54:54.369Z,3.30
2022-11-14T07:58:17.323Z,3.50
2022-11-14T08:01:38.890Z,3.70
2022-11-14T08:05:00.491Z,3.80
2022-11-14T08:08:22.100Z,3.90
2022-11-14T08:11:43.655Z,4.00
2022-11-14T08:15:07.640Z,4.20
2022-11-14T08:18:29.553Z,4.30
2022-11-14T08:21:51.388Z,4.50
2022-11-14T08:25:12.987Z,4.70
2022-11-14T08:28:34.684Z,4.90
2022-11-14T08:32:00.081Z,5.00
2022-11-14T08:35:22.286Z,4.40
2022-11-14T08:38:44.016Z,4.20
2022-11-14T08:42:05.610Z,4.20
2022-11-14T08:45:27.285Z,4.80
2022-11-14T08:48:50.229Z,5.60
2022-11-14T08:52:16.446Z,6.10
2022-11-14T08:55:43.422Z,6.40
2022-11-14T08:59:05.023Z,6.70
2022-11-14T09:02:26.582Z,6.90
2022-11-14T09:05:52.658Z,7.00
2022-11-14T09:09:14.402Z,7.10
2022-11-14T09:12:35.987Z,7.20
2022-11-14T09:15:57.582Z,7.20
2022-11-14T09:19:19.157Z,7.20
2022-11-14T09:22:42.073Z,7.20
2022-11-14T09:26:03.967Z,7.20
2022-11-14T09:29:25.542Z,7.20
2022-11-14T09:32:47.094Z,7.30
2022-11-14T09:36:10.435Z,7.40
2022-11-14T09:39:33.342Z,7.40
2022-11-14T09:43:02.448Z,7.50
2022-11-14T09:46:25.604Z,7.50
2022-11-14T09:49:48.967Z,7.60
2022-11-14T09:53:11.813Z,7.60
2022-11-14T09:56:34.777Z,7.70
2022-11-14T09:59:56.496Z,7.80
2022-11-14T10:03:23.549Z,7.80
2022-11-14T10:06:51.243Z,7.80
2022-11-14T10:10:20.469Z,7.90
2022-11-14T10:13:49.886Z,8.10
2022-11-14T10:17:17.709Z,8.30
2022-11-14T10:20:41.989Z,8.50
2022-11-14T10:24:06.036Z,8.70
2022-11-14T10:27:31.159Z,8.70
2022-11-14T10:30:59.196Z,8.80
2022-11-14T10:34:23.324Z,8.90
2022-11-14T10:37:50.614Z,9.00
2022-11-14T10:41:28.510Z,9.10
2022-11-14T10:44:57.211Z,9.30
2022-11-14T10:48:25.327Z,9.50
2022-11-14T10:51:50.298Z,9.60
2022-11-14T10:55:13.606Z,9.60
2022-11-14T10:58:47.375Z,9.60
2022-11-14T11:02:10.446Z,9.60
2022-11-14T11:05:44.106Z,9.70
2022-11-14T11:09:07.678Z,9.80
2022-11-14T11:12:40.563Z,10.10
2022-11-14T11:16:03.430Z,10.30
2022-11-14T11:19:27.259Z,10.50
2022-11-14T11:23:03.358Z,10.60
2022-11-14T11:26:25.819Z,10.70
2022-11-14T11:29:47.404Z,10.60
2022-11-14T11:33:16.166Z,10.60
2022-11-14T11:36:40.701Z,10.70
2022-11-14T11:40:04.940Z,10.90
2022-11-14T11:43:39.514Z,11.00
2022-11-14T11:47:03.237Z,11.10
2022-11-14T11:50:25.070Z,11.10
2022-11-14T11:53:48.722Z,11.10
2022-11-14T11:57:13.301Z,11.10
2022-11-14T12:00:37.562Z,11.00
2022-11-14T12:04:00.143Z,10.90
2022-11-14T12:07:23.741Z,10.70
2022-11-14T12:10:45.478Z,10.60
2022-11-14T12:14:31.163Z,10.60
2022-11-14T12:18:17.910Z,10.70
2022-11-14T12:21:55.695Z,10.80
2022-11-14T12:25:31.709Z,11.00
2022-11-14T12:29:11.959Z,11.10
2022-11-14T12:32:36.827Z,11.40
2022-11-14T12:36:01.227Z,11.90
2022-11-14T12:39:24.955Z,12.20
2022-11-14T12:42:47.126Z,12.40
2022-11-14T12:46:09.450Z,12.30
2022-11-14T12:49:37.965Z,12.10
2022-11-14T12:53:00.893Z,12.00
2022-11-14T12:56:51.100Z,11.70
2022-11-14T13:00:15.791Z,11.50
2022-11-14T13:03:41.580Z,11.40
2022-11-14T13:07:19.182Z,11.40
2022-11-14T13:10:42.177Z,11.40
2022-11-14T13:14:07.932Z,11.60
2022-11-14T13:17:29.666Z,11.70
2022-11-14T13:21:00.973Z,11.70
2022-11-14T13:24:22.608Z,11.80
2022-11-14T13:28:06.505Z,11.90
2022-11-14T13:31:42.652Z,11.90
2022-11-14T13:35:04.789Z,11.90
2022-11-14T13:38:35.667Z,11.90
2022-11-14T13:42:10.207Z,11.90
2022-11-14T13:45:41.205Z,11.90
2022-11-14T13:49:07.580Z,11.80
2022-11-14T13:52:30.406Z,11.70
2022-11-14T13:56:05.160Z,11.60
2022-11-14T13:59:42.294Z,11.70
2022-11-14T14:03:11.685Z,11.60
2022-11-14T14:06:40.340Z,11.60
2022-11-14T14:10:06.460Z,11.50
2022-11-14T14:13:33.851Z,11.50
2022-11-14T14:16:57.088Z,11.50
2022-11-14T14:20:25.680Z,11.40
2022-11-14T14:23:49.517Z,11.50
2022-11-14T14:27:16.545Z,11.50
2022-11-14T14:30:38.335Z,11.50
2022-11-14T14:33:59.945Z,11.40
2022-11-14T14:37:24.072Z,11.30
2022-11-14T14:40:47.238Z,11.10
2022-11-14T14:44:17.462Z,11.00
2022-11-14T14:47:39.649Z,10.90
2022-11-14T14:51:01.520Z,10.80
2022-11-14T14:54:25.441Z,10.80
2022-11-14T14:57:47.176Z,10.60
2022-11-14T15:01:10.805Z,10.50
2022-11-14T15:04:34.527Z,10.40
2022-11-14T15:07:57.014Z,10.30
2022-11-14T15:11:20.031Z,10.20
2022-11-14T15:14:41.796Z,10.10
2022-11-14T15:18:05.484Z,10.10
2022-11-14T15:21:27.968Z,10.10
2022-11-14T15:25:19.745Z,10.10
2022-11-14T15:28:42.761Z,10.00
2022-11-14T15:32:04.902Z,10.00
2022-11-14T15:35:31.202Z,10.00
2022-11-14T15:38:59.960Z,9.90
2022-11-14T15:42:26.846Z,9.80
2022-11-14T15:45:49.800Z,9.70
2022-11-14T15:49:18.919Z,9.60
2022-11-14T15:52:46.522Z,9.50
2022-11-14T15:56:10.045Z,9.40
2022-11-14T15:59:31.804Z,9.30
2022-11-14T16:02:56.052Z,9.30
2022-11-14T16:06:17.770Z,9.20
2022-11-14T16:09:39.618Z,9.10
2022-11-14T16:13:01.287Z,9.10
2022-11-14T16:16:22.851Z,9.00
2022-11-14T16:19:46.982Z,9.00
2022-11-14T16:23:10.446Z,9.00
2022-11-14T16:26:32.069Z,8.90
2022-11-14T16:30:03.416Z,8.80
2022-11-14T16:33:26.612Z,8.80
2022-11-14T16:36:56.660Z,8.80
2022-11-14T16:40:19.068Z,8.80
2022-11-14T16:43:40.668Z,8.70
2022-11-14T16:47:04.215Z,8.60
2022-11-14T16:50:26.055Z,8.50
2022-11-14T16:53:49.056Z,8.40
2022-11-14T16:57:10.633Z,8.30
2022-11-14T17:00:32.196Z,8.20
2022-11-14T17:03:53.932Z,8.10
2022-11-14T17:07:18.908Z,8.00
2022-11-14T17:10:46.224Z,8.00
2022-11-14T17:14:07.791Z,7.90
2022-11-14T17:17:30.678Z,7.80
2022-11-14T17:20:52.260Z,7.70
2022-11-14T17:24:14.278Z,7.60
2022-11-14T17:27:37.288Z,7.60
2022-11-14T17:30:58.925Z,7.50
2022-11-14T17:34:20.549Z,7.50
2022-11-14T17:37:44.937Z,7.40
2022-11-14T17:41:08.404Z,7.40
2022-11-14T17:44:34.945Z,7.40
2022-11-14T17:47:56.816Z,7.30
2022-11-14T17:51:18.504Z,7.30
2022-11-14T17:54:40.071Z,7.40
2022-11-14T17:58:02.627Z,7.40
2022-11-14T18:01:25.735Z,7.30
2022-11-14T18:04:47.434Z,7.20
2022-11-14T18:08:09.207Z,7.20
2022-11-14T18:11:30.957Z,7.30
2022-11-14T18:14:52.528Z,7.40
2022-11-14T18:18:15.529Z,7.60
2022-11-14T18:21:37.117Z,7.90
2022-11-14T18:25:06.467Z,8.00
2022-11-14T18:28:29.839Z,8.00
2022-11-14T18:31:51.665Z,8.10
2022-11-14T18:35:14.668Z,8.20
2022-11-14T18:38:36.233Z,8.30
2022-11-14T18:41:57.883Z,8.40
2022-11-14T18:45:19.509Z,8.50
2022-11-14T18:48:41.866Z,8.60
2022-11-14T18:52:11.396Z,8.60
2022-11-14T18:55:38.412Z,8.50
2022-11-14T18:59:00.461Z,8.50
2022-11-14T19:02:24.056Z,8.40
2022-11-14T19:05:45.799Z,8.30
2022-11-14T19:09:11.677Z,8.20
2022-11-14T19:12:33.368Z,8.10
2022-11-14T19:16:02.138Z,8.00
2022-11-14T19:19:25.030Z,8.10
2022-11-14T19:22:46.778Z,8.10
2022-11-14T19:26:14.083Z,8.10
2022-11-14T19:29:35.727Z,8.00
2022-11-14T19:32:57.313Z,8.00
2022-11-14T19:36:38.478Z,7.90
2022-11-14T19:40:02.110Z,7.80
2022-11-14T19:43:25.787Z,7.80
2022-11-14T19:46:48.234Z,7.70
2022-11-14T19:50:10.037Z,7.70
2022-11-14T19:53:33.759Z,7.60
2022-11-14T19:56:57.432Z,7.50
2022-11-14T20:00:22.940Z,7.40
2022-11-14T20:03:44.930Z,7.40
2022-11-14T20:07:06.573Z,7.40
2022-11-14T20:10:28.193Z,7.50
2022-11-14T20:13:49.922Z,7.50
2022-11-14T20:17:12.853Z,7.50
2022-11-14T20:20:34.408Z,7.50
2022-11-14T20:23:56.239Z,7.50
2022-11-14T20:27:17.823Z,7.60
2022-11-14T20:30:39.432Z,7.50
2022-11-14T20:34:02.390Z,7.50
2022-11-14T20:37:23.998Z,7.50
2022-11-14T20:40:52.733Z,7.40
2022-11-14T20:44:14.355Z,7.30
2022-11-14T20:47:35.922Z,7.20
2022-11-14T20:51:08.405Z,7.10
2022-11-14T20:54:30.085Z,7.10
2022-11-14T20:57:51.666Z,6.90
2022-11-14T21:01:13.779Z,6.80
2022-11-14T21:04:35.351Z,6.80
2022-11-14T21:07:58.282Z,6.80
2022-11-14T21:11:19.847Z,6.70
2022-11-14T21:14:41.428Z,6.70
2022-11-14T21:18:03.109Z,6.70
2022-11-14T21:21:25.261Z,6.80
2022-11-14T21:24:48.224Z,6.80
2022-11-14T21:28:09.806Z,6.90
2022-11-14T21:31:32.601Z,6.90
2022-11-14T21:34:54.177Z,6.90
2022-11-14T21:38:15.782Z,6.90
2022-11-14T21:41:38.684Z,6.80
2022-11-14T21:45:00.268Z,6.80
2022-11-14T21:48:21.847Z,6.70
2022-11-14T21:51:43.428Z,6.70
2022-11-14T21:55:05.538Z,6.60
2022-11-14T21:58:30.226Z,6.60
2022-11-14T22:01:51.871Z,6.50
2022-11-14T22:05:13.528Z,6.50
2022-11-14T22:08:35.365Z,6.50
2022-11-14T22:11:57.239Z,6.30
2022-11-14T22:15:20.167Z,6.20
2022-11-14T22:18:41.771Z,6.20
2022-11-14T22:22:03.363Z,6.10
2022-11-14T22:25:24.958Z,6.20
2022-11-14T22:28:46.803Z,6.20
2022-11-14T22:32:09.736Z,6.30
2022-11-14T22:35:34.446Z,6.40
2022-11-14T22:38:56.501Z,6.40
2022-11-14T22:42:18.078Z,6.50
2022-11-14T22:45:39.653Z,6.40
2022-11-14T22:49:02.574Z,6.40
2022-11-14T22:52:24.157Z,6.30
2022-11-14T22:55:46.258Z,6.20
2022-11-14T22:59:07.854Z,6.20
2022-11-14T23:02:29.435Z,6.20
2022-11-14T23:05:52.558Z,6.30
2022-11-14T23:09:14.147Z,6.30
2022-11-14T23:12:35.841Z,6.40
2022-11-14T23:15:57.403Z,6.40
2022-11-14T23:19:18.995Z,6.50
2022-11-14T23:22:41.947Z,6.60
2022-11-14T23:26:03.944Z,6.60
2022-11-14T23:29:25.533Z,6.60
2022-11-14T23:32:47.107Z,6.60
2022-11-14T23:36:08.892Z,6.60
2022-11-14T23:39:31.806Z,6.60
2022-11-14T23:42:53.387Z,6.70
2022-11-14T23:46:15.004Z,6.70
2022-11-14T23:49:36.594Z,6.70
2022-11-14T23:52:58.178Z,6.80
2022-11-14T23:56:21.132Z,6.80
2022-11-14T23:59:42.704Z,6.90
